createdAt,value
2022-12-11T00:03:52.770Z,10.53
2022-12-11T00:08:56.296Z,10.37
2022-12-11T00:13:59.573Z,10.35
2022-12-11T00:19:04.385Z,10.33
2022-12-11T00:24:08.277Z,10.32
2022-12-11T00:29:14.733Z,10.33
2022-12-11T00:34:19.394Z,10.32
2022-12-11T00:39:22.661Z,10.21
2022-12-11T00:44:26.002Z,10.17
2022-12-11T00:49:30.949Z,10.04
2022-12-11T00:54:35.584Z,10.03
2022-12-11T00:59:39.238Z,9.99
2022-12-11T01:04:43.949Z,10.01
2022-12-11T01:10:04.478Z,10.03
2022-12-11T01:15:08.961Z,10.15
2022-12-11T01:20:14.162Z,10.12
2022-12-11T01:25:17.391Z,10.11
2022-12-11T01:30:22.493Z,10.09
2022-12-11T01:35:27.156Z,10.11
2022-12-11T01:40:30.538Z,10.11
2022-12-11T01:45:40.277Z,10.07
2022-12-11T01:50:48.285Z,9.94
2022-12-11T01:55:54.851Z,9.96
2022-12-11T02:00:58.847Z,9.97
2022-12-11T02:06:03.724Z,10.02
2022-12-11T02:11:13.916Z,9.98
2022-12-11T02:16:22.847Z,10.03
2022-12-11T02:21:34.251Z,10.01
2022-12-11T02:27:15.876Z,10.00
2022-12-11T02:32:24.012Z,10.04
2022-12-11T02:37:30.815Z,10.11
2022-12-11T02:42:35.445Z,10.06
2022-12-11T02:47:41.083Z,10.05
2022-12-11T02:52:46.148Z,10.05
2022-12-11T02:57:52.749Z,10.04
2022-12-11T03:02:58.129Z,9.93
2022-12-11T03:08:01.443Z,9.96
2022-12-11T03:13:05.588Z,9.96
2022-12-11T03:18:17.260Z,9.96
2022-12-11T03:23:27.319Z,9.90
2022-12-11T03:28:37.509Z,9.88
2022-12-11T03:33:44.690Z,9.89
2022-12-11T03:38:50.433Z,9.89
2022-12-11T03:43:55.578Z,9.86
2022-12-11T03:49:02.578Z,9.83
2022-12-11T03:54:06.427Z,9.85
2022-12-11T03:59:09.791Z,9.81
2022-12-11T04:04:14.577Z,9.84
2022-12-11T04:09:17.815Z,9.85
2022-12-11T04:14:38.363Z,9.81
2022-12-11T04:20:00.538Z,9.78
2022-12-11T04:25:05.287Z,9.73
2022-12-11T04:30:12.627Z,9.74
2022-12-11T04:35:17.330Z,9.63
2022-12-11T04:40:21.944Z,9.55
2022-12-11T04:45:25.106Z,9.47
2022-12-11T04:50:29.685Z,9.49
2022-12-11T04:55:32.852Z,9.44
2022-12-11T05:00:35.999Z,9.41
2022-12-11T05:05:40.683Z,9.37
2022-12-11T05:10:49.857Z,9.39
2022-12-11T05:15:53.587Z,9.32
2022-12-11T05:20:59.472Z,9.27
2022-12-11T05:26:04.871Z,9.32
2022-12-11T05:31:12.932Z,9.33
2022-12-11T05:36:20.106Z,9.31
2022-12-11T05:41:26.019Z,9.36
2022-12-11T05:46:31.364Z,9.36
2022-12-11T05:51:36.373Z,9.34
2022-12-11T05:56:39.891Z,9.40
2022-12-11T06:01:44.432Z,9.39
2022-12-11T06:06:49.123Z,9.40
2022-12-11T06:11:52.258Z,9.41
2022-12-11T06:16:55.499Z,9.35
2022-12-11T06:22:00.161Z,9.36
2022-12-11T06:27:03.422Z,9.35
2022-12-11T06:32:07.204Z,9.26
2022-12-11T06:37:12.012Z,9.30
2022-12-11T06:42:16.810Z,9.28
2022-12-11T06:47:20.100Z,9.36
2022-12-11T06:52:25.629Z,9.35
2022-12-11T06:57:28.777Z,9.31
2022-12-11T07:02:32.072Z,9.35
2022-12-11T07:07:36.768Z,9.39
2022-12-11T07:12:40.005Z,9.39
2022-12-11T07:17:43.466Z,9.35
2022-12-11T07:22:48.194Z,9.42
2022-12-11T07:27:51.350Z,9.41
2022-12-11T07:32:54.690Z,9.40
2022-12-11T07:37:59.870Z,9.48
2022-12-11T07:43:02.903Z,9.43
2022-12-11T07:48:06.656Z,9.45
2022-12-11T07:53:11.332Z,9.44
2022-12-11T07:58:14.545Z,9.42
2022-12-11T08:03:17.774Z,9.44
2022-12-11T08:08:22.481Z,9.50
2022-12-11T08:13:25.709Z,9.53
2022-12-11T08:18:31.082Z,9.48
2022-12-11T08:23:38.265Z,9.55
2022-12-11T08:28:42.121Z,9.66
2022-12-11T08:33:45.773Z,9.66
2022-12-11T08:38:51.162Z,9.68
2022-12-11T08:43:55.356Z,9.74
2022-12-11T08:49:01.270Z,9.77
2022-12-11T08:54:07.489Z,9.78
2022-12-11T08:59:11.004Z,9.87
2022-12-11T09:04:14.151Z,9.86
2022-12-11T09:09:19.942Z,9.89
2022-12-11T09:14:23.282Z,9.88
2022-12-11T09:19:31.892Z,9.88
2022-12-11T09:24:37.003Z,9.81
2022-12-11T09:29:40.814Z,9.84
2022-12-11T09:34:43.966Z,9.74
2022-12-11T09:39:48.687Z,9.75
2022-12-11T09:44:55.366Z,9.83
2022-12-11T09:50:08.179Z,9.81
2022-12-11T09:55:17.885Z,9.85
2022-12-11T15:11:34.010Z,10.22
2022-12-11T15:16:41.025Z,10.39
2022-12-11T15:21:44.363Z,10.55
2022-12-11T15:26:58.257Z,10.67
2022-12-11T15:32:08.457Z,10.89
2022-12-11T15:37:34.317Z,10.93
2022-12-11T15:42:56.499Z,11.03
2022-12-11T15:48:01.069Z,11.14
2022-12-11T15:53:05.275Z,11.21
2022-12-11T15:58:17.526Z,11.20
2022-12-11T16:03:23.849Z,11.24
2022-12-11T16:08:27.036Z,11.15
2022-12-11T16:13:31.620Z,11.03
2022-12-11T16:18:34.766Z,11.02
2022-12-11T16:23:37.997Z,11.05
2022-12-11T16:28:44.234Z,10.95
2022-12-11T16:33:47.411Z,10.99
2022-12-11T16:38:53.858Z,11.06
2022-12-11T16:43:58.967Z,11.11
2022-12-11T16:49:02.095Z,11.06
2022-12-11T16:54:05.647Z,10.93
2022-12-11T16:59:11.028Z,10.82
2022-12-11T17:04:14.168Z,10.82
2022-12-11T17:09:17.349Z,10.87
2022-12-11T17:14:21.918Z,11.07
2022-12-11T17:19:25.281Z,11.18
2022-12-11T17:24:29.039Z,11.27
2022-12-11T17:29:33.610Z,11.34
2022-12-11T17:34:38.599Z,11.18
2022-12-11T17:39:41.575Z,11.14
2022-12-11T17:44:46.663Z,11.17
2022-12-11T17:49:49.530Z,11.12
2022-12-11T17:54:54.091Z,11.21
2022-12-11T17:59:58.742Z,11.23
2022-12-11T18:05:03.355Z,11.40
2022-12-11T18:10:08.629Z,11.45
2022-12-11T18:15:15.088Z,11.49
2022-12-11T18:20:18.597Z,11.53
2022-12-11T18:25:48.346Z,11.48
2022-12-11T18:30:53.661Z,11.53
2022-12-11T18:35:59.430Z,11.47
2022-12-11T18:41:07.655Z,11.57
2022-12-11T18:46:22.197Z,11.65
2022-12-11T18:51:27.356Z,11.66
2022-12-11T18:56:31.566Z,11.49
2022-12-11T19:01:42.849Z,11.57
2022-12-11T19:06:48.984Z,11.60
2022-12-11T19:11:53.221Z,11.56
2022-12-11T19:17:09.420Z,11.57
2022-12-11T19:22:17.673Z,11.62
2022-12-11T19:27:21.692Z,11.66
2022-12-11T19:32:40.082Z,11.66
2022-12-11T19:37:50.278Z,11.65
2022-12-11T19:42:54.544Z,11.64
2022-12-11T19:48:00.695Z,11.59
2022-12-11T19:53:04.011Z,11.64
